sensor_id;sensor_type;location;lat;lon;timestamp;P1;durP1;ratioP1;P2;durP2;ratioP2
20914;SDS011;10617;52.032;5.298;2024-02-21T00:03:45;11.27;;;5.03;;
20914;SDS011;10617;52.032;5.298;2024-02-21T00:07:47;10.85;;;4.15;;
20914;SDS011;10617;52.032;5.298;2024-02-21T00:11:49;11.27;;;4.68;;
20914;SDS011;10617;52.032;5.298;2024-02-21T00:15:51;9.57;;;4.57;;
20914;SDS011;10617;52.032;5.298;2024-02-21T00:19:52;13.20;;;5.20;;
20914;SDS011;10617;52.032;5.298;2024-02-21T00:23:54;8.90;;;4.55;;
20914;SDS011;10617;52.032;5.298;2024-02-21T00:27:57;8.90;;;4.20;;
20914;SDS011;10617;52.032;5.298;2024-02-21T00:37:20;11.77;;;4.72;;
20914;SDS011;10617;52.032;5.298;2024-02-21T00:41:22;14.05;;;4.40;;
20914;SDS011;10617;52.032;5.298;2024-02-21T00:45:24;11.30;;;4.28;;
20914;SDS011;10617;52.032;5.298;2024-02-21T00:54:47;10.07;;;4.78;;
20914;SDS011;10617;52.032;5.298;2024-02-21T00:58:55;7.57;;;4.85;;
20914;SDS011;10617;52.032;5.298;2024-02-21T01:02:57;8.65;;;3.70;;
20914;SDS011;10617;52.032;5.298;2024-02-21T01:06:59;12.50;;;4.40;;
20914;SDS011;10617;52.032;5.298;2024-02-21T01:11:01;6.65;;;3.38;;
20914;SDS011;10617;52.032;5.298;2024-02-21T01:15:03;6.70;;;3.38;;
20914;SDS011;10617;52.032;5.298;2024-02-21T01:24:28;9.77;;;3.55;;
20914;SDS011;10617;52.032;5.298;2024-02-21T01:28:30;9.70;;;3.22;;
20914;SDS011;10617;52.032;5.298;2024-02-21T01:32:32;8.30;;;3.58;;
20914;SDS011;10617;52.032;5.298;2024-02-21T01:36:34;12.75;;;3.30;;
20914;SDS011;10617;52.032;5.298;2024-02-21T01:40:36;8.02;;;3.70;;
20914;SDS011;10617;52.032;5.298;2024-02-21T01:44:38;9.38;;;3.70;;
20914;SDS011;10617;52.032;5.298;2024-02-21T01:48:40;9.70;;;3.72;;
20914;SDS011;10617;52.032;5.298;2024-02-21T01:52:43;9.60;;;3.70;;
20914;SDS011;10617;52.032;5.298;2024-02-21T01:56:48;14.27;;;4.53;;
20914;SDS011;10617;52.032;5.298;2024-02-21T02:11:34;7.72;;;3.78;;
20914;SDS011;10617;52.032;5.298;2024-02-21T02:15:43;11.40;;;4.75;;
20914;SDS011;10617;52.032;5.298;2024-02-21T02:19:49;8.95;;;3.95;;
20914;SDS011;10617;52.032;5.298;2024-02-21T02:23:51;7.25;;;3.22;;
20914;SDS011;10617;52.032;5.298;2024-02-21T02:27:54;8.23;;;3.30;;
20914;SDS011;10617;52.032;5.298;2024-02-21T02:31:56;7.63;;;4.10;;
20914;SDS011;10617;52.032;5.298;2024-02-21T02:35:58;8.73;;;4.22;;
20914;SDS011;10617;52.032;5.298;2024-02-21T02:40:00;9.70;;;4.13;;
20914;SDS011;10617;52.032;5.298;2024-02-21T02:48:55;8.00;;;4.20;;
20914;SDS011;10617;52.032;5.298;2024-02-21T02:52:56;9.73;;;4.68;;
20914;SDS011;10617;52.032;5.298;2024-02-21T02:56:59;9.80;;;3.63;;
20914;SDS011;10617;52.032;5.298;2024-02-21T03:01:01;13.25;;;4.25;;
20914;SDS011;10617;52.032;5.298;2024-02-21T03:05:11;11.93;;;4.20;;
20914;SDS011;10617;52.032;5.298;2024-02-21T03:09:15;9.63;;;4.07;;
20914;SDS011;10617;52.032;5.298;2024-02-21T03:13:16;10.13;;;3.65;;
20914;SDS011;10617;52.032;5.298;2024-02-21T03:17:18;9.07;;;3.72;;
20914;SDS011;10617;52.032;5.298;2024-02-21T03:21:20;10.82;;;4.22;;
20914;SDS011;10617;52.032;5.298;2024-02-21T03:30:44;10.77;;;4.28;;
20914;SDS011;10617;52.032;5.298;2024-02-21T03:34:46;8.75;;;3.88;;
20914;SDS011;10617;52.032;5.298;2024-02-21T03:38:48;11.15;;;4.65;;
20914;SDS011;10617;52.032;5.298;2024-02-21T03:42:50;8.80;;;4.15;;
20914;SDS011;10617;52.032;5.298;2024-02-21T03:46:51;10.90;;;4.18;;
20914;SDS011;10617;52.032;5.298;2024-02-21T03:50:53;9.45;;;4.65;;
20914;SDS011;10617;52.032;5.298;2024-02-21T03:54:55;8.73;;;4.22;;
20914;SDS011;10617;52.032;5.298;2024-02-21T03:58:57;8.32;;;4.53;;
20914;SDS011;10617;52.032;5.298;2024-02-21T04:02:59;9.45;;;3.70;;
20914;SDS011;10617;52.032;5.298;2024-02-21T04:07:01;10.55;;;4.00;;
20914;SDS011;10617;52.032;5.298;2024-02-21T04:11:07;12.10;;;5.55;;
20914;SDS011;10617;52.032;5.298;2024-02-21T04:15:09;11.27;;;4.82;;
20914;SDS011;10617;52.032;5.298;2024-02-21T04:19:11;11.20;;;4.25;;
20914;SDS011;10617;52.032;5.298;2024-02-21T04:23:13;16.17;;;5.00;;
20914;SDS011;10617;52.032;5.298;2024-02-21T04:27:15;9.30;;;4.40;;
20914;SDS011;10617;52.032;5.298;2024-02-21T04:31:17;8.95;;;4.53;;
20914;SDS011;10617;52.032;5.298;2024-02-21T04:35:18;11.15;;;4.85;;
20914;SDS011;10617;52.032;5.298;2024-02-21T04:43:47;8.80;;;4.13;;
20914;SDS011;10617;52.032;5.298;2024-02-21T04:52:43;9.63;;;5.32;;
20914;SDS011;10617;52.032;5.298;2024-02-21T04:56:45;10.80;;;5.25;;
20914;SDS011;10617;52.032;5.298;2024-02-21T05:00:46;10.13;;;5.18;;
20914;SDS011;10617;52.032;5.298;2024-02-21T05:04:48;12.20;;;5.22;;
20914;SDS011;10617;52.032;5.298;2024-02-21T05:08:50;9.43;;;5.63;;
20914;SDS011;10617;52.032;5.298;2024-02-21T05:12:52;12.10;;;5.05;;
20914;SDS011;10617;52.032;5.298;2024-02-21T05:16:54;10.18;;;5.95;;
20914;SDS011;10617;52.032;5.298;2024-02-21T05:20:56;10.90;;;5.30;;
20914;SDS011;10617;52.032;5.298;2024-02-21T05:24:58;11.57;;;5.75;;
20914;SDS011;10617;52.032;5.298;2024-02-21T05:28:59;11.52;;;5.25;;
20914;SDS011;10617;52.032;5.298;2024-02-21T05:33:05;10.02;;;5.50;;
20914;SDS011;10617;52.032;5.298;2024-02-21T05:37:07;11.23;;;5.47;;
20914;SDS011;10617;52.032;5.298;2024-02-21T05:41:09;14.23;;;6.22;;
20914;SDS011;10617;52.032;5.298;2024-02-21T05:45:13;11.82;;;5.68;;
20914;SDS011;10617;52.032;5.298;2024-02-21T05:49:16;12.98;;;6.10;;
20914;SDS011;10617;52.032;5.298;2024-02-21T05:53:18;10.60;;;6.43;;
20914;SDS011;10617;52.032;5.298;2024-02-21T05:57:20;12.07;;;6.78;;
20914;SDS011;10617;52.032;5.298;2024-02-21T06:01:22;13.18;;;7.00;;
20914;SDS011;10617;52.032;5.298;2024-02-21T06:05:24;12.38;;;5.95;;
20914;SDS011;10617;52.032;5.298;2024-02-21T06:09:26;15.65;;;7.47;;
20914;SDS011;10617;52.032;5.298;2024-02-21T06:17:55;15.23;;;6.90;;
20914;SDS011;10617;52.032;5.298;2024-02-21T06:21:57;15.20;;;7.85;;
20914;SDS011;10617;52.032;5.298;2024-02-21T06:25:59;15.32;;;8.10;;
20914;SDS011;10617;52.032;5.298;2024-02-21T06:30:01;18.50;;;9.02;;
20914;SDS011;10617;52.032;5.298;2024-02-21T06:34:04;20.58;;;9.52;;
20914;SDS011;10617;52.032;5.298;2024-02-21T06:38:06;18.30;;;9.38;;
20914;SDS011;10617;52.032;5.298;2024-02-21T06:42:08;18.75;;;9.40;;
20914;SDS011;10617;52.032;5.298;2024-02-21T06:46:10;18.27;;;9.48;;
20914;SDS011;10617;52.032;5.298;2024-02-21T06:50:12;18.80;;;10.13;;
20914;SDS011;10617;52.032;5.298;2024-02-21T06:54:14;19.80;;;8.90;;
20914;SDS011;10617;52.032;5.298;2024-02-21T06:58:16;18.40;;;9.82;;
20914;SDS011;10617;52.032;5.298;2024-02-21T07:02:18;16.77;;;9.32;;
20914;SDS011;10617;52.032;5.298;2024-02-21T07:06:20;24.00;;;9.60;;
20914;SDS011;10617;52.032;5.298;2024-02-21T07:10:22;21.05;;;9.52;;
20914;SDS011;10617;52.032;5.298;2024-02-21T07:14:24;19.13;;;8.52;;
20914;SDS011;10617;52.032;5.298;2024-02-21T07:18:26;15.85;;;7.90;;
20914;SDS011;10617;52.032;5.298;2024-02-21T07:22:28;14.23;;;7.75;;
20914;SDS011;10617;52.032;5.298;2024-02-21T07:26:31;18.40;;;7.65;;
20914;SDS011;10617;52.032;5.298;2024-02-21T07:30:33;19.45;;;7.63;;
20914;SDS011;10617;52.032;5.298;2024-02-21T07:34:35;17.65;;;7.68;;
20914;SDS011;10617;52.032;5.298;2024-02-21T07:38:37;16.60;;;7.18;;
20914;SDS011;10617;52.032;5.298;2024-02-21T07:42:38;15.70;;;7.05;;
20914;SDS011;10617;52.032;5.298;2024-02-21T07:46:40;16.17;;;7.43;;
20914;SDS011;10617;52.032;5.298;2024-02-21T07:50:42;14.38;;;7.47;;
20914;SDS011;10617;52.032;5.298;2024-02-21T07:54:44;14.25;;;7.85;;
20914;SDS011;10617;52.032;5.298;2024-02-21T07:58:46;14.98;;;7.38;;
20914;SDS011;10617;52.032;5.298;2024-02-21T08:02:48;16.40;;;7.78;;
20914;SDS011;10617;52.032;5.298;2024-02-21T08:06:53;22.30;;;8.85;;
20914;SDS011;10617;52.032;5.298;2024-02-21T08:10:56;15.98;;;7.68;;
20914;SDS011;10617;52.032;5.298;2024-02-21T08:14:58;15.25;;;8.18;;
20914;SDS011;10617;52.032;5.298;2024-02-21T08:19:01;17.75;;;7.82;;
20914;SDS011;10617;52.032;5.298;2024-02-21T08:23:08;16.27;;;8.30;;
20914;SDS011;10617;52.032;5.298;2024-02-21T08:27:10;20.25;;;8.38;;
20914;SDS011;10617;52.032;5.298;2024-02-21T08:31:18;19.08;;;9.43;;
20914;SDS011;10617;52.032;5.298;2024-02-21T08:35:21;16.65;;;8.93;;
20914;SDS011;10617;52.032;5.298;2024-02-21T08:39:25;20.70;;;9.57;;
20914;SDS011;10617;52.032;5.298;2024-02-21T08:43:29;17.75;;;8.50;;
20914;SDS011;10617;52.032;5.298;2024-02-21T08:47:32;16.20;;;8.35;;
20914;SDS011;10617;52.032;5.298;2024-02-21T08:51:34;15.15;;;7.90;;
20914;SDS011;10617;52.032;5.298;2024-02-21T08:55:37;17.33;;;7.72;;
20914;SDS011;10617;52.032;5.298;2024-02-21T08:59:39;15.48;;;7.50;;
20914;SDS011;10617;52.032;5.298;2024-02-21T09:03:41;18.58;;;8.57;;
20914;SDS011;10617;52.032;5.298;2024-02-21T09:07:44;14.57;;;7.78;;
20914;SDS011;10617;52.032;5.298;2024-02-21T09:11:46;13.40;;;7.47;;
20914;SDS011;10617;52.032;5.298;2024-02-21T09:15:48;12.15;;;7.13;;
20914;SDS011;10617;52.032;5.298;2024-02-21T09:19:50;13.65;;;7.63;;
20914;SDS011;10617;52.032;5.298;2024-02-21T09:23:52;15.15;;;6.85;;
20914;SDS011;10617;52.032;5.298;2024-02-21T09:27:59;17.67;;;7.32;;
20914;SDS011;10617;52.032;5.298;2024-02-21T09:32:03;14.45;;;7.97;;
20914;SDS011;10617;52.032;5.298;2024-02-21T09:36:05;16.55;;;7.43;;
20914;SDS011;10617;52.032;5.298;2024-02-21T09:40:07;12.60;;;6.50;;
20914;SDS011;10617;52.032;5.298;2024-02-21T09:44:10;13.35;;;6.38;;
20914;SDS011;10617;52.032;5.298;2024-02-21T09:52:36;10.23;;;6.22;;
20914;SDS011;10617;52.032;5.298;2024-02-21T09:56:39;13.75;;;6.35;;
20914;SDS011;10617;52.032;5.298;2024-02-21T10:00:41;11.40;;;5.72;;
20914;SDS011;10617;52.032;5.298;2024-02-21T10:04:43;13.18;;;6.53;;
20914;SDS011;10617;52.032;5.298;2024-02-21T10:13:27;11.00;;;6.38;;
20914;SDS011;10617;52.032;5.298;2024-02-21T10:17:31;10.98;;;5.57;;
20914;SDS011;10617;52.032;5.298;2024-02-21T10:21:34;15.73;;;6.25;;
20914;SDS011;10617;52.032;5.298;2024-02-21T10:25:36;11.48;;;6.18;;
20914;SDS011;10617;52.032;5.298;2024-02-21T10:29:48;11.55;;;5.63;;
20914;SDS011;10617;52.032;5.298;2024-02-21T10:37:58;10.02;;;5.60;;
20914;SDS011;10617;52.032;5.298;2024-02-21T10:42:02;9.65;;;5.30;;
20914;SDS011;10617;52.032;5.298;2024-02-21T10:46:07;9.13;;;4.97;;
20914;SDS011;10617;52.032;5.298;2024-02-21T10:50:16;8.38;;;5.00;;
20914;SDS011;10617;52.032;5.298;2024-02-21T10:54:30;9.60;;;5.18;;
20914;SDS011;10617;52.032;5.298;2024-02-21T10:58:47;11.17;;;5.57;;
20914;SDS011;10617;52.032;5.298;2024-02-21T11:02:50;11.60;;;5.00;;
20914;SDS011;10617;52.032;5.298;2024-02-21T11:06:52;9.40;;;5.75;;
20914;SDS011;10617;52.032;5.298;2024-02-21T11:10:58;10.80;;;5.55;;
20914;SDS011;10617;52.032;5.298;2024-02-21T11:15:05;10.57;;;5.55;;
20914;SDS011;10617;52.032;5.298;2024-02-21T11:19:08;9.93;;;5.45;;
20914;SDS011;10617;52.032;5.298;2024-02-21T11:23:25;10.77;;;6.60;;
20914;SDS011;10617;52.032;5.298;2024-02-21T11:27:27;10.82;;;5.65;;
20914;SDS011;10617;52.032;5.298;2024-02-21T11:31:41;9.95;;;6.05;;
20914;SDS011;10617;52.032;5.298;2024-02-21T11:35:44;10.85;;;6.78;;
20914;SDS011;10617;52.032;5.298;2024-02-21T11:44:14;13.60;;;6.63;;
20914;SDS011;10617;52.032;5.298;2024-02-21T11:48:16;11.75;;;7.00;;
20914;SDS011;10617;52.032;5.298;2024-02-21T11:52:18;12.90;;;6.97;;
20914;SDS011;10617;52.032;5.298;2024-02-21T11:56:21;11.73;;;6.95;;
20914;SDS011;10617;52.032;5.298;2024-02-21T12:00:25;10.18;;;6.15;;
20914;SDS011;10617;52.032;5.298;2024-02-21T12:04:27;12.60;;;6.03;;
20914;SDS011;10617;52.032;5.298;2024-02-21T12:08:42;11.20;;;6.22;;
20914;SDS011;10617;52.032;5.298;2024-02-21T12:12:45;9.48;;;5.78;;
20914;SDS011;10617;52.032;5.298;2024-02-21T12:16:46;12.30;;;6.20;;
20914;SDS011;10617;52.032;5.298;2024-02-21T12:20:49;15.32;;;6.32;;
20914;SDS011;10617;52.032;5.298;2024-02-21T12:24:51;10.45;;;6.15;;
20914;SDS011;10617;52.032;5.298;2024-02-21T12:28:53;12.73;;;6.65;;
20914;SDS011;10617;52.032;5.298;2024-02-21T12:32:56;9.93;;;5.93;;
20914;SDS011;10617;52.032;5.298;2024-02-21T12:37:01;10.27;;;6.32;;
20914;SDS011;10617;52.032;5.298;2024-02-21T12:41:04;10.13;;;5.45;;
20914;SDS011;10617;52.032;5.298;2024-02-21T12:45:06;10.10;;;5.35;;
20914;SDS011;10617;52.032;5.298;2024-02-21T12:49:10;8.55;;;5.50;;
20914;SDS011;10617;52.032;5.298;2024-02-21T12:53:12;9.38;;;5.35;;
20914;SDS011;10617;52.032;5.298;2024-02-21T12:57:25;10.40;;;5.38;;
20914;SDS011;10617;52.032;5.298;2024-02-21T13:01:28;11.85;;;6.25;;
20914;SDS011;10617;52.032;5.298;2024-02-21T13:05:30;8.70;;;5.00;;
20914;SDS011;10617;52.032;5.298;2024-02-21T13:09:33;8.13;;;4.68;;
20914;SDS011;10617;52.032;5.298;2024-02-21T13:13:35;9.65;;;5.03;;
20914;SDS011;10617;52.032;5.298;2024-02-21T13:17:37;8.38;;;5.47;;
20914;SDS011;10617;52.032;5.298;2024-02-21T13:21:39;11.48;;;5.78;;
20914;SDS011;10617;52.032;5.298;2024-02-21T13:30:38;10.00;;;4.63;;
20914;SDS011;10617;52.032;5.298;2024-02-21T13:34:40;11.43;;;5.60;;
20914;SDS011;10617;52.032;5.298;2024-02-21T13:38:43;9.43;;;4.95;;
20914;SDS011;10617;52.032;5.298;2024-02-21T13:42:48;10.50;;;5.60;;
20914;SDS011;10617;52.032;5.298;2024-02-21T13:46:52;10.05;;;5.13;;
20914;SDS011;10617;52.032;5.298;2024-02-21T13:50:54;9.98;;;6.18;;
20914;SDS011;10617;52.032;5.298;2024-02-21T13:54:56;10.00;;;5.10;;
20914;SDS011;10617;52.032;5.298;2024-02-21T14:03:28;9.93;;;5.00;;
20914;SDS011;10617;52.032;5.298;2024-02-21T14:07:30;9.73;;;4.60;;
20914;SDS011;10617;52.032;5.298;2024-02-21T14:11:31;8.90;;;4.35;;
20914;SDS011;10617;52.032;5.298;2024-02-21T14:15:33;9.40;;;4.55;;
20914;SDS011;10617;52.032;5.298;2024-02-21T14:19:35;9.65;;;4.28;;
20914;SDS011;10617;52.032;5.298;2024-02-21T14:23:38;10.63;;;5.00;;
20914;SDS011;10617;52.032;5.298;2024-02-21T14:27:40;11.07;;;4.35;;
20914;SDS011;10617;52.032;5.298;2024-02-21T14:31:41;10.02;;;4.50;;
20914;SDS011;10617;52.032;5.298;2024-02-21T14:40:42;7.38;;;4.15;;
20914;SDS011;10617;52.032;5.298;2024-02-21T14:44:44;7.22;;;4.38;;
20914;SDS011;10617;52.032;5.298;2024-02-21T14:48:46;7.85;;;3.95;;
20914;SDS011;10617;52.032;5.298;2024-02-21T14:52:47;6.82;;;3.90;;
20914;SDS011;10617;52.032;5.298;2024-02-21T14:56:49;9.48;;;4.43;;
20914;SDS011;10617;52.032;5.298;2024-02-21T15:00:51;8.65;;;4.38;;
20914;SDS011;10617;52.032;5.298;2024-02-21T15:04:53;7.65;;;4.13;;
20914;SDS011;10617;52.032;5.298;2024-02-21T15:08:55;8.35;;;4.30;;
20914;SDS011;10617;52.032;5.298;2024-02-21T15:12:57;7.40;;;4.35;;
20914;SDS011;10617;52.032;5.298;2024-02-21T15:16:59;9.60;;;4.30;;
20914;SDS011;10617;52.032;5.298;2024-02-21T15:21:01;9.80;;;4.50;;
20914;SDS011;10617;52.032;5.298;2024-02-21T15:25:04;10.15;;;5.22;;
20914;SDS011;10617;52.032;5.298;2024-02-21T15:33:55;7.93;;;4.47;;
20914;SDS011;10617;52.032;5.298;2024-02-21T15:37:58;11.85;;;4.60;;
20914;SDS011;10617;52.032;5.298;2024-02-21T15:41:59;9.30;;;4.30;;
20914;SDS011;10617;52.032;5.298;2024-02-21T15:46:01;6.88;;;3.78;;
20914;SDS011;10617;52.032;5.298;2024-02-21T15:50:03;10.63;;;4.65;;
20914;SDS011;10617;52.032;5.298;2024-02-21T15:54:05;8.07;;;4.22;;
20914;SDS011;10617;52.032;5.298;2024-02-21T15:58:09;9.45;;;4.53;;
20914;SDS011;10617;52.032;5.298;2024-02-21T16:02:11;8.98;;;4.10;;
20914;SDS011;10617;52.032;5.298;2024-02-21T16:06:14;6.72;;;3.90;;
20914;SDS011;10617;52.032;5.298;2024-02-21T16:10:15;8.52;;;4.65;;
20914;SDS011;10617;52.032;5.298;2024-02-21T16:14:17;10.48;;;5.25;;
20914;SDS011;10617;52.032;5.298;2024-02-21T16:18:19;8.27;;;4.38;;
20914;SDS011;10617;52.032;5.298;2024-02-21T16:22:22;9.38;;;4.85;;
20914;SDS011;10617;52.032;5.298;2024-02-21T16:26:23;11.23;;;5.15;;
20914;SDS011;10617;52.032;5.298;2024-02-21T16:30:25;10.93;;;4.50;;
20914;SDS011;10617;52.032;5.298;2024-02-21T16:34:27;9.07;;;4.60;;
20914;SDS011;10617;52.032;5.298;2024-02-21T16:38:29;8.88;;;4.80;;
20914;SDS011;10617;52.032;5.298;2024-02-21T16:42:34;11.60;;;4.63;;
20914;SDS011;10617;52.032;5.298;2024-02-21T16:46:35;12.40;;;4.75;;
20914;SDS011;10617;52.032;5.298;2024-02-21T16:50:37;8.32;;;4.15;;
20914;SDS011;10617;52.032;5.298;2024-02-21T16:54:53;8.93;;;5.03;;
20914;SDS011;10617;52.032;5.298;2024-02-21T16:58:55;8.65;;;4.50;;
20914;SDS011;10617;52.032;5.298;2024-02-21T17:02:57;9.60;;;4.72;;
20914;SDS011;10617;52.032;5.298;2024-02-21T17:07:00;10.43;;;4.43;;
20914;SDS011;10617;52.032;5.298;2024-02-21T17:11:02;7.55;;;4.55;;
20914;SDS011;10617;52.032;5.298;2024-02-21T17:15:05;7.95;;;4.47;;
20914;SDS011;10617;52.032;5.298;2024-02-21T17:19:07;8.07;;;4.50;;
20914;SDS011;10617;52.032;5.298;2024-02-21T17:23:09;9.45;;;4.90;;
20914;SDS011;10617;52.032;5.298;2024-02-21T17:27:13;10.68;;;4.68;;
20914;SDS011;10617;52.032;5.298;2024-02-21T17:35:48;8.15;;;4.82;;
20914;SDS011;10617;52.032;5.298;2024-02-21T17:39:51;9.68;;;5.05;;
20914;SDS011;10617;52.032;5.298;2024-02-21T17:43:54;9.00;;;5.00;;
20914;SDS011;10617;52.032;5.298;2024-02-21T17:47:56;9.70;;;4.50;;
20914;SDS011;10617;52.032;5.298;2024-02-21T17:57:20;8.90;;;5.43;;
20914;SDS011;10617;52.032;5.298;2024-02-21T18:01:22;7.50;;;4.57;;
20914;SDS011;10617;52.032;5.298;2024-02-21T18:05:24;9.05;;;5.07;;
20914;SDS011;10617;52.032;5.298;2024-02-21T18:09:26;8.23;;;4.45;;
20914;SDS011;10617;52.032;5.298;2024-02-21T18:13:28;7.38;;;5.03;;
20914;SDS011;10617;52.032;5.298;2024-02-21T18:17:33;10.43;;;5.78;;
20914;SDS011;10617;52.032;5.298;2024-02-21T18:21:36;7.32;;;4.70;;
20914;SDS011;10617;52.032;5.298;2024-02-21T18:25:38;10.20;;;4.93;;
20914;SDS011;10617;52.032;5.298;2024-02-21T18:29:41;10.85;;;5.00;;
20914;SDS011;10617;52.032;5.298;2024-02-21T18:33:48;7.65;;;4.75;;
20914;SDS011;10617;52.032;5.298;2024-02-21T18:37:50;9.55;;;5.18;;
20914;SDS011;10617;52.032;5.298;2024-02-21T18:41:52;9.98;;;5.70;;
20914;SDS011;10617;52.032;5.298;2024-02-21T18:51:22;8.43;;;5.50;;
20914;SDS011;10617;52.032;5.298;2024-02-21T18:55:24;7.90;;;5.03;;
20914;SDS011;10617;52.032;5.298;2024-02-21T18:59:27;7.70;;;4.70;;
20914;SDS011;10617;52.032;5.298;2024-02-21T19:03:29;9.80;;;5.13;;
20914;SDS011;10617;52.032;5.298;2024-02-21T19:07:31;7.05;;;4.75;;
20914;SDS011;10617;52.032;5.298;2024-02-21T19:11:35;8.02;;;5.03;;
20914;SDS011;10617;52.032;5.298;2024-02-21T19:15:37;8.02;;;4.68;;
20914;SDS011;10617;52.032;5.298;2024-02-21T19:19:42;8.45;;;5.22;;
20914;SDS011;10617;52.032;5.298;2024-02-21T19:23:45;8.73;;;5.45;;
20914;SDS011;10617;52.032;5.298;2024-02-21T19:27:47;10.95;;;5.97;;
20914;SDS011;10617;52.032;5.298;2024-02-21T19:31:49;8.32;;;5.03;;
20914;SDS011;10617;52.032;5.298;2024-02-21T19:35:51;9.15;;;4.78;;
20914;SDS011;10617;52.032;5.298;2024-02-21T19:39:53;10.07;;;5.72;;
20914;SDS011;10617;52.032;5.298;2024-02-21T19:43:55;8.32;;;4.97;;
20914;SDS011;10617;52.032;5.298;2024-02-21T19:47:56;9.70;;;5.07;;
20914;SDS011;10617;52.032;5.298;2024-02-21T19:51:59;7.90;;;5.07;;
20914;SDS011;10617;52.032;5.298;2024-02-21T19:56:01;9.45;;;5.45;;
20914;SDS011;10617;52.032;5.298;2024-02-21T20:00:09;8.30;;;4.90;;
20914;SDS011;10617;52.032;5.298;2024-02-21T20:04:12;8.15;;;5.38;;
20914;SDS011;10617;52.032;5.298;2024-02-21T20:08:14;8.02;;;4.70;;
20914;SDS011;10617;52.032;5.298;2024-02-21T20:12:19;7.97;;;5.45;;
20914;SDS011;10617;52.032;5.298;2024-02-21T20:16:22;8.68;;;5.32;;
20914;SDS011;10617;52.032;5.298;2024-02-21T20:20:24;8.48;;;5.25;;
20914;SDS011;10617;52.032;5.298;2024-02-21T20:24:26;7.60;;;4.80;;
20914;SDS011;10617;52.032;5.298;2024-02-21T20:28:40;8.15;;;5.38;;
20914;SDS011;10617;52.032;5.298;2024-02-21T20:38:04;9.55;;;4.80;;
20914;SDS011;10617;52.032;5.298;2024-02-21T20:42:07;7.93;;;5.40;;
20914;SDS011;10617;52.032;5.298;2024-02-21T20:51:14;7.63;;;4.97;;
20914;SDS011;10617;52.032;5.298;2024-02-21T20:55:16;6.95;;;4.78;;
20914;SDS011;10617;52.032;5.298;2024-02-21T20:59:25;10.70;;;5.38;;
20914;SDS011;10617;52.032;5.298;2024-02-21T21:03:27;7.47;;;4.85;;
20914;SDS011;10617;52.032;5.298;2024-02-21T21:07:32;6.80;;;4.88;;
20914;SDS011;10617;52.032;5.298;2024-02-21T21:11:35;8.52;;;5.40;;
20914;SDS011;10617;52.032;5.298;2024-02-21T21:15:46;6.97;;;5.00;;
20914;SDS011;10617;52.032;5.298;2024-02-21T21:19:51;6.55;;;4.43;;
20914;SDS011;10617;52.032;5.298;2024-02-21T21:23:54;6.90;;;5.05;;
20914;SDS011;10617;52.032;5.298;2024-02-21T21:27:56;7.28;;;4.60;;
20914;SDS011;10617;52.032;5.298;2024-02-21T21:31:58;6.97;;;4.80;;
20914;SDS011;10617;52.032;5.298;2024-02-21T21:36:00;8.25;;;5.22;;
20914;SDS011;10617;52.032;5.298;2024-02-21T21:40:03;7.47;;;4.93;;
20914;SDS011;10617;52.032;5.298;2024-02-21T21:44:08;8.20;;;4.15;;
20914;SDS011;10617;52.032;5.298;2024-02-21T21:48:11;6.88;;;5.03;;
20914;SDS011;10617;52.032;5.298;2024-02-21T21:52:13;10.10;;;4.80;;
20914;SDS011;10617;52.032;5.298;2024-02-21T21:56:18;7.85;;;4.75;;
20914;SDS011;10617;52.032;5.298;2024-02-21T22:00:20;7.63;;;5.05;;
20914;SDS011;10617;52.032;5.298;2024-02-21T22:04:22;8.57;;;5.45;;
20914;SDS011;10617;52.032;5.298;2024-02-21T22:08:24;7.43;;;5.18;;
20914;SDS011;10617;52.032;5.298;2024-02-21T22:12:26;6.78;;;4.88;;
20914;SDS011;10617;52.032;5.298;2024-02-21T22:21:51;8.23;;;5.38;;
20914;SDS011;10617;52.032;5.298;2024-02-21T22:25:53;7.35;;;5.07;;
20914;SDS011;10617;52.032;5.298;2024-02-21T22:29:55;7.45;;;5.38;;
20914;SDS011;10617;52.032;5.298;2024-02-21T22:33:58;7.13;;;4.82;;
20914;SDS011;10617;52.032;5.298;2024-02-21T22:38:00;7.75;;;5.32;;
20914;SDS011;10617;52.032;5.298;2024-02-21T22:42:02;8.40;;;5.82;;
20914;SDS011;10617;52.032;5.298;2024-02-21T22:46:04;8.85;;;6.28;;
20914;SDS011;10617;52.032;5.298;2024-02-21T22:50:07;8.98;;;6.38;;
20914;SDS011;10617;52.032;5.298;2024-02-21T22:54:09;9.52;;;6.32;;
20914;SDS011;10617;52.032;5.298;2024-02-21T22:58:11;8.75;;;6.38;;
20914;SDS011;10617;52.032;5.298;2024-02-21T23:02:12;8.20;;;6.07;;
20914;SDS011;10617;52.032;5.298;2024-02-21T23:06:14;10.55;;;7.40;;
20914;SDS011;10617;52.032;5.298;2024-02-21T23:10:16;11.63;;;7.30;;
20914;SDS011;10617;52.032;5.298;2024-02-21T23:14:19;9.68;;;6.85;;
20914;SDS011;10617;52.032;5.298;2024-02-21T23:18:30;10.05;;;7.50;;
20914;SDS011;10617;52.032;5.298;2024-02-21T23:22:32;10.45;;;7.35;;
20914;SDS011;10617;52.032;5.298;2024-02-21T23:26:34;10.32;;;7.53;;
20914;SDS011;10617;52.032;5.298;2024-02-21T23:30:36;11.65;;;7.72;;
20914;SDS011;10617;52.032;5.298;2024-02-21T23:34:38;11.82;;;8.85;;
20914;SDS011;10617;52.032;5.298;2024-02-21T23:38:39;11.95;;;8.35;;
20914;SDS011;10617;52.032;5.298;2024-02-21T23:42:41;12.60;;;9.18;;
20914;SDS011;10617;52.032;5.298;2024-02-21T23:46:43;12.38;;;8.98;;
20914;SDS011;10617;52.032;5.298;2024-02-21T23:50:46;12.70;;;9.05;;
20914;SDS011;10617;52.032;5.298;2024-02-21T23:54:48;13.90;;;9.15;;
20914;SDS011;10617;52.032;5.298;2024-02-21T23:58:50;12.98;;;9.40;;
